createdAt,value
2023-05-22T00:01:37.914Z,16.11
2023-05-22T00:06:43.093Z,16.10
2023-05-22T00:11:46.161Z,16.08
2023-05-22T00:16:47.878Z,16.06
2023-05-22T00:21:49.616Z,16.00
2023-05-22T00:26:53.645Z,15.98
2023-05-22T00:31:55.343Z,15.98
2023-05-22T00:36:56.989Z,15.96
2023-05-22T00:42:00.624Z,15.93
2023-05-22T00:47:02.402Z,15.92
2023-05-22T00:52:04.706Z,15.90
2023-05-22T00:57:07.783Z,15.87
2023-05-22T01:02:09.783Z,15.84
2023-05-22T01:07:11.570Z,15.81
2023-05-22T01:12:20.733Z,15.81
2023-05-22T01:17:32.296Z,15.80
2023-05-22T01:22:56.963Z,15.76
2023-05-22T01:28:30.394Z,15.74
2023-05-22T01:33:41.254Z,15.71
2023-05-22T01:38:43.704Z,15.68
2023-05-22T01:43:46.379Z,15.67
2023-05-22T01:48:49.461Z,15.61
2023-05-22T01:53:55.293Z,15.60
2023-05-22T01:59:03.232Z,15.58
2023-05-22T02:04:06.969Z,15.57
2023-05-22T02:09:10.156Z,15.57
2023-05-22T02:14:11.908Z,15.54
2023-05-22T02:19:15.404Z,15.49
2023-05-22T02:24:18.315Z,15.50
2023-05-22T02:29:20.039Z,15.49
2023-05-22T02:34:23.103Z,15.47
2023-05-22T02:39:24.782Z,15.45
2023-05-22T02:44:26.489Z,15.43
2023-05-22T02:49:29.538Z,15.36
2023-05-22T02:54:31.211Z,15.34
2023-05-22T02:59:32.933Z,15.34
2023-05-22T03:04:36.011Z,15.35
2023-05-22T03:09:37.680Z,15.34
2023-05-22T03:14:39.429Z,15.31
2023-05-22T03:19:42.489Z,15.26
2023-05-22T03:24:44.133Z,15.22
2023-05-22T03:29:45.796Z,15.21
2023-05-22T03:34:48.870Z,15.22
2023-05-22T03:39:50.581Z,15.22
2023-05-22T03:44:52.279Z,15.21
2023-05-22T03:49:55.377Z,15.19
2023-05-22T03:54:57.085Z,15.18
2023-05-22T03:59:58.740Z,15.17
2023-05-22T04:05:01.769Z,15.17
2023-05-22T04:10:04.197Z,15.17
2023-05-22T04:15:07.178Z,15.22
2023-05-22T04:20:11.084Z,15.26
2023-05-22T04:25:13.068Z,15.27
2023-05-22T04:30:15.434Z,15.27
2023-05-22T04:35:18.714Z,15.29
2023-05-22T04:40:20.693Z,15.33
2023-05-22T04:45:22.380Z,15.38
2023-05-22T04:50:25.455Z,15.31
2023-05-22T04:55:28.848Z,15.24
2023-05-22T05:01:01.425Z,15.41
2023-05-22T05:06:14.396Z,15.57
2023-05-22T05:11:16.090Z,15.74
2023-05-22T05:16:17.849Z,15.81
2023-05-22T05:21:21.228Z,15.96
2023-05-22T05:26:22.955Z,15.97
2023-05-22T05:31:24.807Z,16.00
2023-05-22T05:36:28.096Z,16.02
2023-05-22T05:41:29.786Z,16.01
2023-05-22T05:46:31.691Z,15.99
2023-05-22T05:51:34.828Z,16.00
2023-05-22T05:56:36.759Z,16.02
2023-05-22T06:01:38.634Z,16.08
2023-05-22T06:06:42.007Z,16.16
2023-05-22T06:11:43.632Z,16.21
2023-05-22T06:16:45.344Z,16.20
2023-05-22T06:21:49.824Z,16.29
2023-05-22T06:26:53.229Z,16.28
2023-05-22T06:31:54.956Z,16.28
2023-05-22T06:36:58.097Z,16.34
2023-05-22T06:41:59.916Z,16.52
2023-05-22T06:47:01.667Z,16.60
2023-05-22T06:52:05.578Z,16.70
2023-05-22T06:57:07.276Z,16.90
2023-05-22T07:02:08.988Z,17.04
2023-05-22T07:07:12.004Z,17.56
2023-05-22T07:12:13.726Z,17.77
2023-05-22T07:17:15.386Z,17.97
2023-05-22T07:22:18.470Z,18.15
2023-05-22T07:27:20.290Z,18.30
2023-05-22T07:32:22.002Z,18.32
2023-05-22T07:37:25.189Z,18.45
2023-05-22T07:42:26.874Z,18.45
2023-05-22T07:47:28.690Z,18.33
2023-05-22T07:52:31.850Z,18.36
2023-05-22T07:57:33.602Z,18.64
2023-05-22T08:02:35.407Z,18.59
2023-05-22T08:07:38.534Z,18.51
2023-05-22T08:12:40.278Z,18.78
2023-05-22T08:17:42.010Z,18.85
2023-05-22T08:22:45.067Z,19.03
2023-05-22T08:27:46.740Z,18.76
2023-05-22T08:32:48.436Z,19.30
2023-05-22T08:37:51.566Z,18.98
2023-05-22T08:42:53.282Z,19.19
2023-05-22T08:47:57.196Z,19.10
2023-05-22T08:53:01.296Z,19.46
2023-05-22T08:58:04.600Z,19.33
2023-05-22T09:03:06.592Z,19.07
2023-05-22T09:08:19.590Z,19.26
2023-05-22T09:13:26.213Z,18.94
2023-05-22T09:18:28.678Z,19.21
2023-05-22T09:23:31.954Z,18.87
2023-05-22T09:28:35.122Z,18.75
2023-05-22T09:33:37.274Z,18.79
2023-05-22T09:38:40.479Z,18.97
2023-05-22T09:43:50.249Z,18.82
2023-05-22T09:48:52.133Z,18.68
2023-05-22T09:54:02.638Z,18.72
2023-05-22T09:59:07.263Z,18.87
2023-05-22T10:04:12.920Z,18.94
2023-05-22T10:09:19.239Z,18.93
2023-05-22T10:14:22.949Z,19.01
2023-05-22T10:19:25.401Z,19.07
2023-05-22T10:24:29.531Z,18.99
2023-05-22T10:29:36.594Z,18.93
2023-05-22T10:34:49.249Z,18.92
2023-05-22T10:40:02.112Z,18.98
2023-05-22T10:45:08.363Z,18.92
2023-05-22T10:50:11.746Z,19.15
2023-05-22T10:55:14.934Z,19.27
2023-05-22T11:00:24.177Z,19.23
2023-05-22T11:05:36.107Z,19.18
2023-05-22T11:10:55.633Z,19.30
2023-05-22T11:15:58.691Z,19.17
2023-05-22T11:21:00.406Z,19.08
2023-05-22T11:26:18.594Z,18.97
2023-05-22T11:31:20.819Z,18.97
2023-05-22T11:36:24.971Z,19.26
2023-05-22T11:41:33.866Z,19.05
2023-05-22T11:46:36.003Z,18.83
2023-05-22T11:51:38.654Z,19.06
2023-05-22T11:56:41.872Z,19.02
2023-05-22T12:01:43.585Z,19.14
2023-05-22T12:06:45.667Z,19.06
2023-05-22T12:11:49.296Z,19.01
2023-05-22T12:16:52.522Z,19.09
2023-05-22T12:21:54.697Z,18.89
2023-05-22T12:26:57.752Z,18.89
2023-05-22T12:32:02.664Z,19.03
2023-05-22T12:37:04.244Z,19.06
2023-05-22T12:42:07.744Z,19.40
2023-05-22T12:47:09.438Z,19.04
2023-05-22T12:52:11.090Z,19.12
2023-05-22T12:57:14.256Z,19.09
2023-05-22T13:02:15.933Z,18.96
2023-05-22T13:07:20.602Z,19.03
2023-05-22T13:12:23.821Z,19.09
2023-05-22T13:17:25.620Z,19.04
2023-05-22T13:22:27.366Z,19.08
2023-05-22T13:27:32.742Z,18.99
2023-05-22T13:32:35.408Z,19.17
2023-05-22T13:37:37.308Z,19.13
2023-05-22T13:42:40.370Z,19.14
2023-05-22T13:47:42.105Z,19.29
2023-05-22T13:52:45.965Z,19.16
2023-05-22T13:57:49.016Z,19.24
2023-05-22T14:02:50.741Z,19.51
2023-05-22T14:07:52.463Z,19.41
2023-05-22T14:12:55.609Z,19.14
2023-05-22T14:17:57.335Z,19.06
2023-05-22T14:23:02.031Z,19.45
2023-05-22T14:28:05.133Z,19.28
2023-05-22T14:33:07.152Z,19.18
2023-05-22T14:38:11.928Z,19.25
2023-05-22T14:43:15.847Z,19.04
2023-05-22T14:48:17.573Z,19.02
2023-05-22T14:53:19.395Z,19.06
2023-05-22T14:58:22.455Z,19.06
2023-05-22T15:03:26.891Z,19.10
2023-05-22T15:08:28.587Z,18.92
2023-05-22T15:13:31.598Z,18.73
2023-05-22T15:18:33.323Z,18.77
2023-05-22T15:23:35.240Z,18.71
2023-05-22T15:28:38.277Z,18.69
2023-05-22T15:33:39.931Z,18.59
2023-05-22T15:38:41.625Z,18.68
2023-05-22T15:43:44.706Z,18.59
2023-05-22T15:48:46.509Z,18.51
2023-05-22T15:53:48.196Z,18.55
2023-05-22T15:58:51.281Z,18.48
2023-05-22T16:03:53.206Z,18.43
2023-05-22T16:08:54.992Z,18.38
2023-05-22T16:13:58.066Z,18.42
2023-05-22T16:18:59.814Z,18.40
2023-05-22T16:24:01.553Z,18.29
2023-05-22T16:29:07.069Z,18.33
2023-05-22T16:34:08.752Z,18.37
2023-05-22T16:39:10.464Z,18.26
2023-05-22T16:44:13.585Z,18.27
2023-05-22T16:49:15.301Z,18.25
2023-05-22T16:54:17.007Z,18.32
2023-05-22T16:59:20.242Z,18.25
2023-05-22T17:04:22.004Z,18.25
2023-05-22T17:09:26.579Z,18.25
2023-05-22T17:14:33.411Z,18.25
2023-05-22T17:19:35.328Z,18.20
2023-05-22T17:24:37.087Z,18.19
2023-05-22T17:29:40.248Z,18.13
2023-05-22T17:34:41.960Z,18.19
2023-05-22T17:39:43.674Z,18.18
2023-05-22T17:44:46.724Z,18.12
2023-05-22T17:49:48.404Z,18.16
2023-05-22T17:54:50.119Z,18.17
2023-05-22T17:59:53.220Z,18.17
2023-05-22T18:04:54.906Z,18.22
2023-05-22T18:09:56.707Z,18.17
2023-05-22T18:14:59.785Z,18.13
2023-05-22T18:20:01.503Z,18.17
2023-05-22T18:25:03.292Z,18.17
2023-05-22T18:30:10.423Z,18.15
2023-05-22T18:35:12.138Z,18.15
2023-05-22T18:40:13.907Z,18.22
2023-05-22T18:45:16.981Z,18.19
2023-05-22T18:50:18.909Z,18.10
2023-05-22T18:55:23.393Z,18.08
2023-05-22T19:00:26.466Z,18.04
2023-05-22T19:05:28.172Z,18.03
2023-05-22T19:10:29.863Z,17.98
2023-05-22T19:15:33.464Z,17.90
2023-05-22T19:20:38.373Z,17.87
2023-05-22T19:25:40.169Z,17.82
2023-05-22T19:30:43.555Z,17.79
2023-05-22T19:35:45.537Z,17.79
2023-05-22T19:40:47.210Z,17.78
2023-05-22T19:45:50.600Z,17.76
2023-05-22T19:50:52.284Z,17.72
2023-05-22T19:55:53.981Z,17.70
2023-05-22T20:00:57.084Z,17.76
2023-05-22T20:05:58.828Z,17.76
2023-05-22T20:11:00.472Z,17.74
2023-05-22T20:16:03.725Z,17.73
2023-05-22T20:21:05.484Z,17.74
2023-05-22T20:26:07.200Z,17.74
2023-05-22T20:31:10.260Z,17.76
2023-05-22T20:36:11.973Z,17.76
2023-05-22T20:41:13.676Z,17.75
2023-05-22T20:46:16.778Z,17.76
2023-05-22T20:51:18.487Z,17.73
2023-05-22T20:56:20.216Z,17.66
2023-05-22T21:01:24.038Z,17.68
2023-05-22T21:06:25.699Z,17.62
2023-05-22T21:11:27.932Z,17.59
2023-05-22T21:16:30.950Z,17.61
2023-05-22T21:21:32.640Z,17.60
2023-05-22T21:26:34.353Z,17.57
2023-05-22T21:31:37.686Z,17.53
2023-05-22T21:36:39.424Z,17.54
2023-05-22T21:41:41.281Z,17.55
2023-05-22T21:46:44.404Z,17.51
2023-05-22T21:51:46.074Z,17.49
2023-05-22T21:56:47.798Z,17.49
2023-05-22T22:01:50.858Z,17.50
2023-05-22T22:06:52.577Z,17.49
2023-05-22T22:11:54.276Z,17.48
2023-05-22T22:16:57.398Z,17.45
2023-05-22T22:21:59.126Z,17.41
2023-05-22T22:27:00.841Z,17.42
2023-05-22T22:32:04.179Z,17.44
2023-05-22T22:37:06.126Z,17.42
2023-05-22T22:42:08.008Z,17.42
2023-05-22T22:47:11.075Z,17.40
2023-05-22T22:52:12.748Z,17.38
2023-05-22T22:57:14.623Z,17.39
2023-05-22T23:02:17.736Z,17.38
2023-05-22T23:07:19.396Z,17.37
2023-05-22T23:12:21.075Z,17.37
2023-05-22T23:17:24.106Z,17.40
2023-05-22T23:22:25.774Z,17.38
2023-05-22T23:27:27.447Z,17.38
2023-05-22T23:32:30.534Z,17.40
2023-05-22T23:37:32.238Z,17.36
2023-05-22T23:42:33.960Z,17.34
2023-05-22T23:47:37.210Z,17.34
2023-05-22T23:52:39.051Z,17.33
2023-05-22T23:57:40.739Z,17.36
